createdAt,value
2017-08-12T00:00:05.268Z,85.60
2017-08-12T00:02:34.129Z,85.80
2017-08-12T00:05:03.023Z,85.70
2017-08-12T00:07:32.777Z,85.90
2017-08-12T00:10:01.675Z,85.70
2017-08-12T00:12:30.557Z,85.50
2017-08-12T00:14:59.446Z,85.20
2017-08-12T00:17:28.297Z,85.20
2017-08-12T00:19:57.187Z,85.20
2017-08-12T00:22:26.077Z,85.20
2017-08-12T00:24:54.961Z,85.00
2017-08-12T00:27:23.850Z,84.50
2017-08-12T00:29:52.697Z,84.50
2017-08-12T00:32:21.586Z,84.30
2017-08-12T00:34:50.482Z,84.10
2017-08-12T00:37:19.369Z,84.00
2017-08-12T00:39:48.258Z,83.60
2017-08-12T00:42:17.163Z,83.60
2017-08-12T00:44:46.058Z,83.80
2017-08-12T00:47:14.949Z,84.00
2017-08-12T00:49:43.807Z,84.10
2017-08-12T00:52:12.711Z,84.00
2017-08-12T00:54:41.571Z,83.50
2017-08-12T00:57:10.424Z,83.20
2017-08-12T00:59:39.327Z,83.10
2017-08-12T01:02:07.878Z,83.00
2017-08-12T01:04:36.773Z,83.00
2017-08-12T01:07:05.625Z,82.70
2017-08-12T01:09:34.468Z,83.30
2017-08-12T01:12:03.325Z,82.70
2017-08-12T01:14:32.226Z,82.80
2017-08-12T01:17:01.086Z,82.90
2017-08-12T01:19:29.973Z,82.90
2017-08-12T01:21:58.868Z,82.30
2017-08-12T01:24:27.766Z,82.00
2017-08-12T01:26:56.647Z,82.00
2017-08-12T01:29:25.533Z,81.70
2017-08-12T01:31:54.434Z,81.70
2017-08-12T01:34:23.313Z,81.50
2017-08-12T01:36:52.197Z,81.40
2017-08-12T01:39:21.088Z,81.50
2017-08-12T01:41:49.947Z,81.40
2017-08-12T01:44:18.791Z,81.30
2017-08-12T01:46:47.670Z,81.30
2017-08-12T01:49:16.561Z,81.00
2017-08-12T01:51:45.458Z,81.20
2017-08-12T01:54:14.311Z,81.00
2017-08-12T01:56:43.192Z,80.90
2017-08-12T01:59:12.069Z,80.80
2017-08-12T02:01:40.941Z,80.80
2017-08-12T02:04:09.816Z,81.00
2017-08-12T02:06:38.714Z,81.10
2017-08-12T02:09:07.595Z,81.10
2017-08-12T02:11:36.485Z,81.10
2017-08-12T02:14:05.369Z,81.10
2017-08-12T02:16:34.254Z,81.10
2017-08-12T02:19:03.154Z,81.40
2017-08-12T02:21:32.031Z,81.80
2017-08-12T02:24:02.018Z,81.80
2017-08-12T02:26:30.900Z,81.70
2017-08-12T02:28:59.794Z,81.80
2017-08-12T02:31:28.689Z,81.80
2017-08-12T02:33:57.569Z,81.90
2017-08-12T02:36:26.412Z,82.00
2017-08-12T02:38:56.085Z,82.20
2017-08-12T02:41:24.971Z,82.20
2017-08-12T02:43:54.230Z,82.20
2017-08-12T02:46:23.118Z,82.30
2017-08-12T02:48:51.974Z,82.40
2017-08-12T02:51:20.913Z,82.50
2017-08-12T02:53:49.816Z,82.70
2017-08-12T02:56:18.699Z,82.70
2017-08-12T02:58:47.587Z,82.70
2017-08-12T03:01:16.484Z,82.70
2017-08-12T03:03:45.373Z,82.60
2017-08-12T03:06:14.258Z,82.70
2017-08-12T03:08:43.106Z,82.70
2017-08-12T03:11:11.988Z,83.00
2017-08-12T03:13:40.873Z,83.10
2017-08-12T03:16:09.767Z,83.30
2017-08-12T03:18:38.654Z,83.10
2017-08-12T03:21:07.550Z,83.20
2017-08-12T03:23:36.425Z,82.90
2017-08-12T03:26:05.313Z,82.80
2017-08-12T03:28:34.202Z,83.40
2017-08-12T03:31:03.091Z,82.80
2017-08-12T03:33:31.989Z,82.70
2017-08-12T03:36:00.868Z,82.70
2017-08-12T03:38:29.754Z,82.70
2017-08-12T03:40:58.636Z,82.80
2017-08-12T03:43:27.528Z,82.70
2017-08-12T03:45:56.387Z,82.70
2017-08-12T03:48:26.163Z,82.70
2017-08-12T03:50:55.063Z,82.70
2017-08-12T03:53:23.948Z,82.60
2017-08-12T03:55:52.807Z,82.10
2017-08-12T03:58:21.680Z,82.00
2017-08-12T04:00:50.559Z,81.80
2017-08-12T04:03:19.416Z,81.50
2017-08-12T04:05:47.954Z,81.20
2017-08-12T04:08:16.845Z,81.10
2017-08-12T04:10:45.702Z,81.10
2017-08-12T04:13:14.585Z,81.00
2017-08-12T04:15:43.479Z,80.80
2017-08-12T04:18:12.356Z,80.60
2017-08-12T04:20:41.254Z,80.60
2017-08-12T04:23:11.101Z,80.60
2017-08-12T04:25:40.769Z,80.40
2017-08-12T04:28:09.655Z,80.40
2017-08-12T04:30:38.540Z,80.40
2017-08-12T04:33:07.421Z,80.30
2017-08-12T04:35:36.318Z,80.20
2017-08-12T04:38:05.201Z,80.20
2017-08-12T04:40:33.925Z,80.10
2017-08-12T04:43:02.804Z,80.10
2017-08-12T04:45:31.336Z,80.30
2017-08-12T04:48:00.992Z,80.10
2017-08-12T04:50:29.850Z,80.10
2017-08-12T04:52:59.048Z,80.10
2017-08-12T04:55:28.708Z,79.80
2017-08-12T04:57:57.588Z,79.80
2017-08-12T05:00:26.477Z,80.00
2017-08-12T05:02:55.382Z,79.90
2017-08-12T05:05:24.275Z,79.70
2017-08-12T05:07:53.121Z,79.70
2017-08-12T05:10:22.013Z,79.60
2017-08-12T05:12:50.909Z,79.70
2017-08-12T05:15:19.795Z,79.80
2017-08-12T05:17:48.690Z,79.80
2017-08-12T05:20:17.542Z,79.60
2017-08-12T05:22:46.453Z,79.50
2017-08-12T05:25:15.354Z,79.40
2017-08-12T05:27:44.233Z,79.20
2017-08-12T05:30:13.889Z,79.20
2017-08-12T05:32:42.751Z,79.10
2017-08-12T05:35:11.609Z,79.10
2017-08-12T05:37:40.490Z,79.10
2017-08-12T05:40:09.374Z,79.10
2017-08-12T05:45:16.725Z,78.80
2017-08-12T05:47:45.632Z,78.80
2017-08-12T05:50:14.512Z,78.80
2017-08-12T05:52:43.384Z,78.90
2017-08-12T05:55:13.046Z,79.40
2017-08-12T05:57:41.937Z,78.70
2017-08-12T06:00:10.837Z,78.50
2017-08-12T06:02:39.721Z,78.20
2017-08-12T06:05:08.609Z,78.10
2017-08-12T06:07:37.492Z,77.70
2017-08-12T06:10:06.376Z,77.60
2017-08-12T06:12:35.255Z,77.60
2017-08-12T06:15:03.784Z,77.40
2017-08-12T06:17:32.688Z,76.90
2017-08-12T06:20:01.599Z,77.50
2017-08-12T06:22:31.256Z,75.90
2017-08-12T06:25:00.150Z,75.80
2017-08-12T06:27:29.050Z,75.80
2017-08-12T06:29:57.959Z,75.60
2017-08-12T06:32:26.845Z,75.50
2017-08-12T06:34:56.686Z,74.80
2017-08-12T06:37:25.581Z,74.80
2017-08-12T06:39:55.149Z,74.60
2017-08-12T06:42:24.028Z,74.10
2017-08-12T06:44:52.908Z,74.20
2017-08-12T06:47:21.803Z,73.90
2017-08-12T06:49:50.684Z,73.80
2017-08-12T06:54:57.899Z,73.60
2017-08-12T06:57:26.746Z,73.30
2017-08-12T06:59:55.658Z,73.10
2017-08-12T07:02:24.571Z,72.80
2017-08-12T07:04:53.474Z,72.90
2017-08-12T07:07:22.365Z,72.90
2017-08-12T07:09:51.256Z,72.80
2017-08-12T07:12:20.147Z,72.60
2017-08-12T07:14:49.032Z,72.40
2017-08-12T07:17:17.919Z,72.50
2017-08-12T07:19:46.765Z,72.40
2017-08-12T07:22:15.659Z,72.10
2017-08-12T07:24:44.540Z,71.80
2017-08-12T07:27:13.420Z,71.50
2017-08-12T07:29:42.318Z,71.00
2017-08-12T07:32:11.168Z,70.90
2017-08-12T07:34:40.070Z,70.80
2017-08-12T07:37:08.958Z,70.60
2017-08-12T07:39:37.851Z,70.30
2017-08-12T07:42:06.729Z,69.50
2017-08-12T07:44:35.619Z,69.40
2017-08-12T07:47:04.533Z,69.20
2017-08-12T07:49:33.463Z,68.80
2017-08-12T07:52:02.359Z,68.80
2017-08-12T07:54:31.281Z,68.60
2017-08-12T07:57:00.186Z,68.50
2017-08-12T07:59:29.064Z,68.70
2017-08-12T08:01:57.965Z,68.70
2017-08-12T08:04:26.854Z,68.60
2017-08-12T08:06:55.753Z,68.00
2017-08-12T08:09:24.598Z,67.00
2017-08-12T08:11:53.483Z,65.90
2017-08-12T08:14:22.376Z,65.20
2017-08-12T08:16:51.278Z,65.30
2017-08-12T08:19:20.947Z,65.10
2017-08-12T08:21:49.842Z,64.30
2017-08-12T08:24:18.698Z,64.30
2017-08-12T08:26:47.556Z,64.20
2017-08-12T08:29:16.450Z,64.20
2017-08-12T08:31:45.333Z,63.20
2017-08-12T08:34:14.209Z,63.20
2017-08-12T08:36:43.094Z,62.80
2017-08-12T08:39:11.998Z,61.90
2017-08-12T08:41:40.853Z,61.60
2017-08-12T08:44:09.707Z,61.20
2017-08-12T08:46:38.551Z,61.20
2017-08-12T08:49:07.443Z,60.90
2017-08-12T08:51:36.340Z,60.80
2017-08-12T08:54:05.190Z,60.80
2017-08-12T08:56:34.069Z,60.90
2017-08-12T08:59:03.733Z,60.90
2017-08-12T09:01:32.612Z,60.20
2017-08-12T09:04:01.497Z,60.30
2017-08-12T09:06:30.390Z,60.00
2017-08-12T09:08:59.298Z,60.30
2017-08-12T09:11:28.192Z,59.60
2017-08-12T09:13:57.082Z,59.30
2017-08-12T09:16:25.961Z,59.40
2017-08-12T09:18:54.857Z,59.00
2017-08-12T09:21:23.745Z,59.30
2017-08-12T09:23:52.631Z,58.30
2017-08-12T09:26:21.509Z,58.30
2017-08-12T09:28:50.398Z,58.30
2017-08-12T09:31:19.300Z,58.50
2017-08-12T09:33:48.279Z,58.30
2017-08-12T09:36:17.173Z,58.50
2017-08-12T09:38:46.061Z,57.90
2017-08-12T09:41:14.943Z,57.50
2017-08-12T09:43:43.838Z,57.10
2017-08-12T09:46:12.686Z,56.90
2017-08-12T09:48:41.544Z,56.70
2017-08-12T09:51:10.246Z,56.80
2017-08-12T09:53:39.138Z,57.20
2017-08-12T09:56:08.068Z,57.40
2017-08-12T09:58:36.952Z,57.40
2017-08-12T10:01:05.862Z,57.30
2017-08-12T10:03:34.758Z,57.40
2017-08-12T10:06:03.647Z,57.10
2017-08-12T10:08:32.577Z,57.60
2017-08-12T10:11:01.482Z,57.20
2017-08-12T10:13:30.364Z,57.30
2017-08-12T10:15:59.254Z,57.50
2017-08-12T10:18:28.139Z,57.60
2017-08-12T10:20:57.136Z,57.80
2017-08-12T10:23:26.022Z,57.80
2017-08-12T10:25:54.917Z,57.90
2017-08-12T10:28:23.792Z,57.90
2017-08-12T10:30:52.677Z,57.90
2017-08-12T10:33:21.519Z,57.80
2017-08-12T10:35:50.419Z,57.30
2017-08-12T10:38:19.304Z,57.30
2017-08-12T10:40:48.197Z,57.20
2017-08-12T10:43:17.062Z,56.90
2017-08-12T10:45:45.949Z,56.80
2017-08-12T10:48:14.808Z,56.40
2017-08-12T10:50:44.466Z,56.20
2017-08-12T10:53:13.310Z,56.10
2017-08-12T10:55:42.952Z,55.60
2017-08-12T10:58:11.841Z,55.60
2017-08-12T11:00:40.721Z,55.10
2017-08-12T11:03:09.614Z,54.90
2017-08-12T11:05:38.518Z,55.10
2017-08-12T11:08:07.409Z,55.00
2017-08-12T11:10:36.299Z,55.20
2017-08-12T11:13:05.184Z,55.20
2017-08-12T11:15:34.063Z,55.30
2017-08-12T11:18:02.947Z,55.20
2017-08-12T11:20:31.838Z,55.10
2017-08-12T11:23:00.764Z,54.90
2017-08-12T11:25:29.641Z,54.90
2017-08-12T11:27:58.533Z,54.90
2017-08-12T11:30:27.415Z,55.00
2017-08-12T11:32:56.324Z,54.70
2017-08-12T11:35:25.216Z,54.30
2017-08-12T11:37:54.101Z,54.80
2017-08-12T11:40:22.985Z,54.50
2017-08-12T11:42:51.884Z,53.90
2017-08-12T11:45:20.773Z,53.80
2017-08-12T11:47:49.650Z,53.40
2017-08-12T11:50:19.300Z,51.90
2017-08-12T12:10:28.013Z,52.60
2017-08-12T12:12:56.898Z,52.50
2017-08-12T12:15:26.552Z,52.10
2017-08-12T12:41:02.350Z,53.00
2017-08-12T12:46:29.911Z,53.10
2017-08-12T12:48:58.804Z,53.30
2017-08-12T12:51:27.686Z,53.20
2017-08-12T12:53:56.624Z,53.30
2017-08-12T12:56:25.516Z,53.10
2017-08-12T12:58:54.396Z,53.20
2017-08-12T13:07:10.459Z,52.30
2017-08-12T13:09:39.344Z,51.80
2017-08-12T13:12:08.246Z,51.20
2017-08-12T13:14:37.140Z,50.90
2017-08-12T13:17:06.043Z,50.60
2017-08-12T13:25:40.852Z,50.30
2017-08-12T13:28:09.782Z,50.40
2017-08-12T13:30:38.678Z,50.40
2017-08-12T13:33:07.526Z,50.10
2017-08-12T13:35:36.408Z,49.50
2017-08-12T13:38:05.305Z,49.80
2017-08-12T13:40:34.190Z,49.60
2017-08-12T13:43:03.089Z,49.80
2017-08-12T13:45:31.978Z,50.00
2017-08-12T13:48:00.877Z,50.30
2017-08-12T13:50:29.790Z,50.40
2017-08-12T13:52:58.739Z,50.80
2017-08-12T13:55:28.397Z,51.10
2017-08-12T13:57:57.275Z,51.10
2017-08-12T14:00:26.128Z,51.20
2017-08-12T14:02:55.781Z,51.00
2017-08-12T14:05:24.669Z,50.60
2017-08-12T14:07:53.551Z,50.30
2017-08-12T14:10:22.438Z,51.20
2017-08-12T14:12:51.323Z,50.30
2017-08-12T14:15:20.267Z,50.00
2017-08-12T14:17:49.160Z,50.30
2017-08-12T14:20:18.045Z,50.10
2017-08-12T14:22:46.937Z,49.70
2017-08-12T14:25:21.298Z,49.60
2017-08-12T15:10:01.174Z,47.80
2017-08-12T15:12:30.062Z,47.40
2017-08-12T15:14:58.954Z,47.00
2017-08-12T15:17:27.838Z,46.80
2017-08-12T15:19:56.712Z,46.60
2017-08-12T15:22:26.365Z,46.80
2017-08-12T15:24:55.266Z,46.80
2017-08-12T15:27:24.162Z,46.80
2017-08-12T15:32:22.022Z,47.30
2017-08-12T15:34:50.915Z,47.40
2017-08-12T15:37:19.805Z,47.50
2017-08-12T15:39:48.705Z,47.40
2017-08-12T15:42:17.606Z,47.10
2017-08-12T15:47:49.199Z,47.20
2017-08-12T15:50:18.096Z,47.40
2017-08-12T15:52:46.994Z,47.20
2017-08-12T15:55:15.886Z,47.00
2017-08-12T15:57:44.809Z,47.50
2017-08-12T16:00:13.700Z,47.90
2017-08-12T16:02:42.596Z,47.80
2017-08-12T16:05:11.480Z,47.90
2017-08-12T16:10:32.826Z,48.20
2017-08-12T16:13:01.710Z,48.50
2017-08-12T16:15:30.616Z,48.50
2017-08-12T16:18:00.179Z,48.90
2017-08-12T16:20:29.841Z,48.80
2017-08-12T16:22:58.738Z,49.30
2017-08-12T16:25:27.639Z,49.60
2017-08-12T16:27:56.533Z,49.70
2017-08-12T16:30:25.439Z,49.40
2017-08-12T16:32:54.330Z,49.50
2017-08-12T16:35:23.226Z,49.60
2017-08-12T16:37:52.120Z,49.80
2017-08-12T16:40:20.975Z,49.60
2017-08-12T16:42:49.865Z,49.70
2017-08-12T16:45:18.716Z,49.80
2017-08-12T16:47:48.361Z,50.70
2017-08-12T16:50:18.632Z,50.00
2017-08-12T16:52:48.335Z,50.20
2017-08-12T16:55:17.326Z,50.50
2017-08-12T16:57:46.212Z,50.60
2017-08-12T17:00:15.071Z,50.70
2017-08-12T17:02:43.952Z,51.50
2017-08-12T17:05:12.845Z,51.00
2017-08-12T17:07:42.175Z,51.10
2017-08-12T17:10:11.068Z,51.20
2017-08-12T17:12:39.944Z,51.40
2017-08-12T17:15:08.830Z,51.50
2017-08-12T17:17:37.725Z,51.70
2017-08-12T17:20:08.371Z,52.00
2017-08-12T17:22:39.762Z,52.10
2017-08-12T17:25:09.436Z,52.10
2017-08-12T17:27:38.505Z,52.30
2017-08-12T17:30:07.389Z,52.40
2017-08-12T17:32:36.401Z,52.40
2017-08-12T17:35:06.661Z,52.50
2017-08-12T17:37:35.555Z,52.40
2017-08-12T17:40:04.461Z,52.60
2017-08-12T17:42:34.341Z,52.60
2017-08-12T17:47:50.112Z,52.80
2017-08-12T17:56:07.198Z,52.80
2017-08-12T17:58:36.095Z,53.10
2017-08-12T18:03:49.198Z,53.20
2017-08-12T18:06:18.047Z,53.20
2017-08-12T18:08:47.028Z,53.40
2017-08-12T18:11:15.924Z,53.50
2017-08-12T18:13:44.815Z,53.60
2017-08-12T18:16:13.696Z,53.80
2017-08-12T18:18:42.575Z,54.00
2017-08-12T18:21:11.432Z,54.00
2017-08-12T18:23:41.111Z,54.40
2017-08-12T18:26:09.997Z,54.30
2017-08-12T18:28:38.896Z,56.10
2017-08-12T18:31:07.801Z,56.10
2017-08-12T18:33:36.664Z,56.20
2017-08-12T18:36:05.567Z,55.90
2017-08-12T18:38:34.457Z,56.00
2017-08-12T18:41:03.355Z,56.00
2017-08-12T18:43:32.250Z,55.70
2017-08-12T18:46:01.130Z,55.80
2017-08-12T18:48:30.912Z,56.00
2017-08-12T18:50:59.865Z,55.80
2017-08-12T18:53:28.718Z,55.70
2017-08-12T18:55:57.586Z,55.80
2017-08-12T18:58:26.464Z,56.10
2017-08-12T19:00:55.362Z,56.50
2017-08-12T19:03:24.258Z,56.60
2017-08-12T19:05:53.143Z,56.90
2017-08-12T19:08:22.024Z,57.20
2017-08-12T19:10:50.918Z,57.40
2017-08-12T19:13:20.564Z,57.80
2017-08-12T19:15:49.448Z,57.70
2017-08-12T19:18:18.328Z,58.00
2017-08-12T19:20:47.211Z,58.20
2017-08-12T19:26:07.968Z,58.50
2017-08-12T19:28:36.873Z,58.70
2017-08-12T19:31:06.629Z,58.80
2017-08-12T19:33:37.199Z,59.00
2017-08-12T19:36:08.932Z,59.20
2017-08-12T19:38:37.825Z,59.30
2017-08-12T19:41:06.717Z,59.50
2017-08-12T19:43:35.618Z,59.70
2017-08-12T19:46:06.861Z,60.00
2017-08-12T19:48:36.206Z,60.30
2017-08-12T19:51:05.990Z,60.70
2017-08-12T19:53:39.845Z,61.20
2017-08-12T19:56:42.961Z,61.90
2017-08-12T20:05:56.051Z,62.40
2017-08-12T20:08:24.969Z,62.60
2017-08-12T20:10:54.050Z,63.40
2017-08-12T20:13:22.964Z,63.90
2017-08-12T20:15:51.872Z,64.30
2017-08-12T20:23:54.575Z,65.60
2017-08-12T20:26:24.126Z,66.20
2017-08-12T20:28:53.033Z,66.40
2017-08-12T20:31:21.925Z,66.70
2017-08-12T20:33:50.810Z,67.00
2017-08-12T20:36:20.462Z,67.70
2017-08-12T20:38:49.347Z,67.60
2017-08-12T20:41:18.232Z,68.10
2017-08-12T20:43:47.131Z,68.30
2017-08-12T20:48:58.764Z,68.80
2017-08-12T20:51:28.253Z,69.00
2017-08-12T20:53:57.742Z,69.30
2017-08-12T20:56:26.612Z,69.40
2017-08-12T20:58:56.298Z,69.40
2017-08-12T21:01:25.173Z,69.70
2017-08-12T21:03:54.053Z,69.80
2017-08-12T21:06:22.938Z,69.80
2017-08-12T21:08:51.823Z,70.10
2017-08-12T21:11:20.717Z,70.30
2017-08-12T21:13:49.597Z,70.30
2017-08-12T21:16:18.480Z,70.30
2017-08-12T21:18:48.838Z,70.30
2017-08-12T21:21:17.730Z,70.40
2017-08-12T21:23:46.637Z,70.30
2017-08-12T21:26:16.283Z,70.00
2017-08-12T21:28:45.177Z,70.40
2017-08-12T21:31:14.061Z,70.40
2017-08-12T21:33:42.951Z,70.40
2017-08-12T21:36:11.838Z,70.40
2017-08-12T21:38:40.731Z,70.40
2017-08-12T21:41:09.632Z,70.30
2017-08-12T21:43:38.526Z,70.20
2017-08-12T21:46:07.418Z,70.20
2017-08-12T21:48:36.313Z,70.30
2017-08-12T21:51:05.201Z,70.30
2017-08-12T21:53:34.051Z,70.40
2017-08-12T21:56:02.942Z,70.40
2017-08-12T21:58:31.796Z,70.40
2017-08-12T22:01:00.679Z,70.30
2017-08-12T22:03:29.577Z,70.30
2017-08-12T22:05:58.464Z,70.20
2017-08-12T22:08:27.348Z,70.20
2017-08-12T22:10:56.229Z,70.20
2017-08-12T22:13:25.156Z,70.30
2017-08-12T22:15:54.045Z,70.30
2017-08-12T22:18:22.942Z,70.20
2017-08-12T22:20:51.821Z,70.30
2017-08-12T22:23:20.699Z,70.30
2017-08-12T22:25:49.585Z,70.40
2017-08-12T22:28:18.482Z,70.40
2017-08-12T22:30:47.366Z,70.60
2017-08-12T22:33:16.223Z,70.70
2017-08-12T22:35:45.872Z,70.70
2017-08-12T22:38:14.752Z,70.60
2017-08-12T22:40:43.642Z,70.60
2017-08-12T22:43:12.520Z,70.80
2017-08-12T22:45:41.409Z,70.80
2017-08-12T22:48:10.358Z,70.90
2017-08-12T22:50:39.254Z,71.00
2017-08-12T22:53:08.146Z,71.00
2017-08-12T22:55:37.029Z,71.00
2017-08-12T22:58:05.911Z,71.00
2017-08-12T23:00:34.823Z,71.00
2017-08-12T23:03:03.717Z,71.60
2017-08-12T23:05:32.601Z,71.10
2017-08-12T23:08:01.459Z,71.10
2017-08-12T23:10:30.357Z,71.20
2017-08-12T23:12:59.246Z,71.30
2017-08-12T23:15:28.133Z,71.20
2017-08-12T23:17:56.974Z,71.20
2017-08-12T23:20:25.858Z,71.20
2017-08-12T23:22:54.780Z,71.10
2017-08-12T23:25:23.666Z,71.10
2017-08-12T23:27:52.500Z,71.40
2017-08-12T23:30:21.391Z,71.30
2017-08-12T23:32:50.372Z,71.30
2017-08-12T23:35:19.257Z,71.40
2017-08-12T23:37:48.140Z,71.40
2017-08-12T23:40:16.994Z,71.40
2017-08-12T23:42:45.882Z,71.40
2017-08-12T23:45:14.769Z,71.40
2017-08-12T23:47:43.653Z,71.40
2017-08-12T23:50:12.514Z,71.40
2017-08-12T23:52:41.407Z,71.30
2017-08-12T23:55:10.288Z,71.40
2017-08-12T23:57:39.172Z,71.50
